Time;durP1;ratioP1;P1;durP2;ratioP2;P2;SDS_P1;SDS_P2;PMS_P1;PMS_P2;Temp;Humidity;BMP_temperature;BMP_pressure;BME280_temperature;BME280_humidity;BME280_pressure;Samples;Min_cycle;Max_cycle;Signal;HPM_P1;HPM_P2
2023/10/31 00:01:50;;;;;;;;;;;;;;;10.23;100.00;95008.59;5083706;28;19957;-75
2023/10/31 00:04:15;;;;;;;;;;;;;;;10.26;100.00;95015.94;5083856;28;19958;-75
2023/10/31 00:06:41;;;;;;;;;;;;;;;10.24;100.00;95009.38;5083325;28;20016;-75
2023/10/31 00:09:07;;;;;;;;;;;;;;;10.20;100.00;95001.22;5083743;28;19954;-73
2023/10/31 00:11:33;;;;;;;;;;;;;;;10.17;100.00;95012.22;5083829;28;19960;-72
2023/10/31 00:13:59;;;;;;;;;;;;;;;10.14;100.00;95016.13;5084646;28;20104;-72
2023/10/31 00:16:25;;;;;;;;;;;;;;;10.10;100.00;95017.66;5086978;28;19966;-71
2023/10/31 00:18:51;;;;;;;;;;;;;;;10.06;100.00;95026.28;5087524;28;20138;-72
2023/10/31 00:21:17;;;;;;;;;;;;;;;10.02;100.00;95027.81;5087452;28;19960;-72
2023/10/31 00:23:46;;;;;;;;;;;;;;;9.97;100.00;95028.53;5087001;28;19957;-71
2023/10/31 00:26:13;;;;;;;;;;;;;;;9.94;100.00;95018.56;5086502;28;19977;-75
2023/10/31 00:28:38;;;;;;;;;;;;;;;9.92;100.00;95037.16;5087327;28;19957;-71
2023/10/31 00:31:06;;;;;;;;;;;;;;;9.89;100.00;95037.66;5087007;28;19963;-72
2023/10/31 00:33:32;;;;;;;;;;;;;;;9.88;100.00;95040.50;5086893;28;19955;-71
2023/10/31 00:35:58;;;;;;;;;;;;;;;9.85;100.00;95041.81;5086307;28;19971;-71
2023/10/31 00:38:24;;;;;;;;;;;;;;;9.84;100.00;95042.81;5087096;28;19950;-71
2023/10/31 00:40:49;;;;;;;;;;;;;;;9.82;100.00;95042.28;5087017;28;19960;-71
2023/10/31 00:43:15;;;;;;;;;;;;;;;9.80;100.00;95044.34;5086831;28;19946;-72
2023/10/31 00:45:41;;;;;;;;;;;;;;;9.77;100.00;95052.72;5087074;28;20112;-75
2023/10/31 00:48:07;;;;;;;;;;;;;;;9.74;100.00;95046.16;5086455;28;20023;-70
2023/10/31 00:50:33;;;;;;;;;;;;;;;9.71;100.00;95046.63;5086756;28;19970;-70
2023/10/31 00:52:59;;;;;;;;;;;;;;;9.70;100.00;95052.09;5086521;28;19955;-70
2023/10/31 00:55:25;;;;;;;;;;;;;;;9.68;100.00;95035.84;5086864;28;19955;-70
2023/10/31 00:57:51;;;;;;;;;;;;;;;9.67;100.00;95047.38;5086419;28;19961;-69
2023/10/31 01:00:16;;;;;;;;;;;;;;;9.66;100.00;95048.41;5086398;28;19954;-70
2023/10/31 01:02:42;;;;;;;;;;;;;;;9.60;100.00;95050.19;5086319;28;19961;-70
2023/10/31 01:05:08;;;;;;;;;;;;;;;9.51;100.00;95057.69;5086258;28;19959;-77
2023/10/31 01:07:35;;;;;;;;;;;;;;;9.49;100.00;95056.34;5086405;28;20089;-76
2023/10/31 01:10:01;;;;;;;;;;;;;;;9.42;100.00;95050.50;5086387;28;19949;-77
2023/10/31 01:12:27;;;;;;;;;;;;;;;9.35;100.00;95050.69;5086293;28;19990;-77
2023/10/31 01:14:54;;;;;;;;;;;;;;;9.30;100.00;95053.25;5085798;28;19959;-77
2023/10/31 01:17:20;;;;;;;;;;;;;;;9.26;100.00;95060.81;5086308;28;19965;-78
2023/10/31 01:19:46;;;;;;;;;;;;;;;9.24;100.00;95062.88;5085871;28;19950;-77
2023/10/31 01:22:12;;;;;;;;;;;;;;;9.23;100.00;95076.19;5085419;28;20025;-76
2023/10/31 01:24:38;;;;;;;;;;;;;;;9.25;100.00;95079.34;5085467;28;19951;-77
2023/10/31 01:27:04;;;;;;;;;;;;;;;9.28;100.00;95086.69;5085210;28;20027;-77
2023/10/31 01:29:30;;;;;;;;;;;;;;;9.32;100.00;95091.22;5085790;28;19951;-77
2023/10/31 01:31:55;;;;;;;;;;;;;;;9.38;100.00;95093.88;5085769;28;19962;-77
2023/10/31 01:34:22;;;;;;;;;;;;;;;9.42;100.00;95090.53;5085796;28;19957;-77
2023/10/31 01:36:47;;;;;;;;;;;;;;;9.47;100.00;95105.50;5085730;28;19975;-77
2023/10/31 01:39:13;;;;;;;;;;;;;;;9.52;100.00;95102.97;5085816;28;19962;-77
2023/10/31 01:41:43;;;;;;;;;;;;;;;9.55;100.00;95103.28;5085818;28;19968;-75
2023/10/31 01:44:09;;;;;;;;;;;;;;;9.59;100.00;95102.78;5085476;28;19944;-72
2023/10/31 01:46:35;;;;;;;;;;;;;;;9.62;100.00;95110.16;5085791;28;19983;-72
2023/10/31 01:49:00;;;;;;;;;;;;;;;9.63;100.00;95109.88;5085612;28;19986;-73
2023/10/31 01:51:27;;;;;;;;;;;;;;;9.65;100.00;95099.97;5085185;28;20236;-73
2023/10/31 01:53:54;;;;;;;;;;;;;;;9.65;100.00;95094.72;5085743;28;19960;-73
2023/10/31 01:56:20;;;;;;;;;;;;;;;9.66;100.00;95103.38;5085311;28;19966;-73
2023/10/31 01:58:48;;;;;;;;;;;;;;;9.66;100.00;95108.59;5085205;28;19965;-74
2023/10/31 02:01:13;;;;;;;;;;;;;;;9.67;100.00;95104.97;5085438;28;19940;-76
2023/10/31 02:03:39;;;;;;;;;;;;;;;9.67;100.00;95110.97;5084046;28;20015;-78
2023/10/31 02:06:05;;;;;;;;;;;;;;;9.67;100.00;95110.19;5085143;28;19939;-77
2023/10/31 02:08:31;;;;;;;;;;;;;;;9.67;100.00;95110.19;5083885;28;19952;-76
2023/10/31 02:10:57;;;;;;;;;;;;;;;9.66;100.00;95114.66;5085092;28;19961;-76
2023/10/31 02:13:23;;;;;;;;;;;;;;;9.66;100.00;95117.25;5084702;28;19982;-76
2023/10/31 02:15:49;;;;;;;;;;;;;;;9.67;100.00;95129.31;5084873;28;19960;-76
2023/10/31 02:18:15;;;;;;;;;;;;;;;9.66;100.00;95130.34;5083304;28;19994;-68
2023/10/31 02:20:41;;;;;;;;;;;;;;;9.65;100.00;95125.34;5085050;28;19954;-78
2023/10/31 02:23:07;;;;;;;;;;;;;;;9.64;100.00;95126.38;5084653;28;20240;-77
2023/10/31 02:25:33;;;;;;;;;;;;;;;9.63;100.00;95127.41;5084714;28;19959;-77
2023/10/31 02:27:58;;;;;;;;;;;;;;;9.61;100.00;95126.88;5084609;28;20046;-77
2023/10/31 02:30:24;;;;;;;;;;;;;;;9.58;100.00;95125.53;5084658;28;19960;-78
2023/10/31 02:32:50;;;;;;;;;;;;;;;9.55;100.00;95132.06;5084724;28;19965;-78
2023/10/31 02:35:17;;;;;;;;;;;;;;;9.50;100.00;95129.38;5084717;28;20000;-72
2023/10/31 02:37:46;;;;;;;;;;;;;;;9.46;100.00;95138.72;5084619;28;20141;-68
2023/10/31 02:40:12;;;;;;;;;;;;;;;9.43;100.00;95147.09;5084938;28;20153;-68
2023/10/31 02:42:38;;;;;;;;;;;;;;;9.39;100.00;95145.19;5083452;28;19945;-68
2023/10/31 02:45:04;;;;;;;;;;;;;;;9.35;100.00;95152.72;5084223;28;19956;-67
2023/10/31 02:47:30;;;;;;;;;;;;;;;9.34;100.00;95145.91;5084157;28;20138;-67
2023/10/31 02:49:56;;;;;;;;;;;;;;;9.30;100.00;95143.00;5085131;28;19963;-68
2023/10/31 02:52:22;;;;;;;;;;;;;;;9.30;100.00;95145.59;5084362;28;20146;-73
2023/10/31 02:54:48;;;;;;;;;;;;;;;9.27;100.00;95156.53;5084347;28;20028;-77
2023/10/31 02:57:15;;;;;;;;;;;;;;;9.26;100.00;95157.59;5084527;28;19960;-69
2023/10/31 02:59:41;;;;;;;;;;;;;;;9.27;100.00;95156.53;5084349;28;19955;-69
2023/10/31 03:02:07;;;;;;;;;;;;;;;9.27;100.00;95146.06;5084416;28;19958;-69
2023/10/31 03:04:33;;;;;;;;;;;;;;;9.30;100.00;95150.84;5084460;28;19967;-69
2023/10/31 03:06:59;;;;;;;;;;;;;;;9.31;100.00;95152.41;5084415;28;19969;-70
2023/10/31 03:09:24;;;;;;;;;;;;;;;9.35;100.00;95155.34;5084466;28;20023;-69
2023/10/31 03:11:50;;;;;;;;;;;;;;;9.37;100.00;95158.50;5084655;28;19945;-76
2023/10/31 03:14:16;;;;;;;;;;;;;;;9.34;100.00;95164.22;5083157;28;19989;-73
2023/10/31 03:16:42;;;;;;;;;;;;;;;9.32;100.00;95151.38;5084227;28;19985;-73
2023/10/31 03:19:08;;;;;;;;;;;;;;;9.33;100.00;95167.88;5083994;28;20143;-72
2023/10/31 03:21:34;;;;;;;;;;;;;;;9.35;100.00;95163.19;5084259;28;19956;-73
2023/10/31 03:23:59;;;;;;;;;;;;;;;9.34;100.00;95162.41;5084274;28;19962;-73
2023/10/31 03:26:25;;;;;;;;;;;;;;;9.34;100.00;95174.66;5083949;28;20006;-73
2023/10/31 03:28:56;;;;;;;;;;;;;;;9.34;100.00;95190.38;5084227;28;19997;-73
2023/10/31 03:31:23;;;;;;;;;;;;;;;9.33;100.00;95189.59;5084202;28;19955;-73
2023/10/31 03:33:49;;;;;;;;;;;;;;;9.34;100.00;95191.19;5084246;28;19957;-73
2023/10/31 03:36:15;;;;;;;;;;;;;;;9.31;100.00;95191.66;5084061;28;19964;-73
2023/10/31 03:38:41;;;;;;;;;;;;;;;9.31;100.00;95180.41;5084182;28;19954;-73
2023/10/31 03:41:07;;;;;;;;;;;;;;;9.26;100.00;95191.59;5083618;28;19949;-74
2023/10/31 03:43:33;;;;;;;;;;;;;;;9.26;100.00;95190.78;5084134;28;20232;-72
2023/10/31 03:45:59;;;;;;;;;;;;;;;9.23;100.00;95194.66;5083660;28;20254;-73
2023/10/31 03:48:26;;;;;;;;;;;;;;;9.18;100.00;95194.59;5084169;28;19963;-76
2023/10/31 03:50:51;;;;;;;;;;;;;;;9.13;100.00;95197.13;5087333;28;20132;-67
2023/10/31 03:53:17;;;;;;;;;;;;;;;9.12;100.00;95201.59;5087492;28;19961;-68
2023/10/31 03:55:43;;;;;;;;;;;;;;;9.11;100.00;95200.00;5087571;28;19950;-68
2023/10/31 03:58:09;;;;;;;;;;;;;;;9.11;100.00;95207.03;5087578;28;19971;-68
2023/10/31 04:00:35;;;;;;;;;;;;;;;9.09;100.00;95201.25;5087572;28;20296;-68
2023/10/31 04:03:01;;;;;;;;;;;;;;;9.08;100.00;95199.69;5087637;28;19990;-68
2023/10/31 04:05:27;;;;;;;;;;;;;;;9.06;100.00;95201.75;5087616;28;19961;-68
2023/10/31 04:07:53;;;;;;;;;;;;;;;9.03;100.00;95207.44;5087566;28;19993;-76
2023/10/31 04:10:19;;;;;;;;;;;;;;;9.00;100.00;95210.53;5086332;28;19939;-69
2023/10/31 04:12:45;;;;;;;;;;;;;;;8.98;100.00;95212.59;5087724;28;19961;-68
2023/10/31 04:15:11;;;;;;;;;;;;;;;8.96;100.00;95215.44;5087013;28;19956;-68
2023/10/31 04:17:37;;;;;;;;;;;;;;;8.96;100.00;95212.03;5087047;28;20018;-68
2023/10/31 04:20:03;;;;;;;;;;;;;;;8.96;100.00;95219.88;5086746;28;19951;-68
2023/10/31 04:22:29;;;;;;;;;;;;;;;8.96;100.00;95212.03;5085734;28;20282;-68
2023/10/31 04:24:56;;;;;;;;;;;;;;;8.92;100.00;95215.16;5087021;28;19949;-75
2023/10/31 04:27:21;;;;;;;;;;;;;;;8.89;100.00;95210.38;5087177;28;19970;-68
2023/10/31 04:29:47;;;;;;;;;;;;;;;8.86;100.00;95217.88;5087104;28;20025;-74
2023/10/31 04:32:13;;;;;;;;;;;;;;;8.84;100.00;95218.16;5087021;28;19994;-74
2023/10/31 04:34:39;;;;;;;;;;;;;;;8.83;100.00;95232.22;5087006;28;19957;-75
2023/10/31 04:37:05;;;;;;;;;;;;;;;8.79;100.00;95228.50;5087075;28;19994;-74
2023/10/31 04:39:31;;;;;;;;;;;;;;;8.74;100.00;95224.00;5086996;28;19963;-73
2023/10/31 04:41:57;;;;;;;;;;;;;;;8.73;100.00;95224.22;5087230;28;19946;-75
2023/10/31 04:44:23;;;;;;;;;;;;;;;8.68;100.00;95216.31;5087169;28;20184;-73
2023/10/31 04:46:48;;;;;;;;;;;;;;;8.64;100.00;95213.38;5086428;28;20085;-74
2023/10/31 04:49:17;;;;;;;;;;;;;;;8.63;100.00;95224.03;5086789;28;19959;-73
2023/10/31 04:51:43;;;;;;;;;;;;;;;8.59;100.00;95225.53;5086777;28;20116;-74
2023/10/31 04:54:09;;;;;;;;;;;;;;;8.51;100.00;95226.72;5086460;28;19966;-74
2023/10/31 04:56:35;;;;;;;;;;;;;;;8.47;100.00;95228.22;5087033;28;20117;-74
2023/10/31 04:59:01;;;;;;;;;;;;;;;8.43;100.00;95227.88;5086687;28;19954;-73
2023/10/31 05:01:27;;;;;;;;;;;;;;;8.40;100.00;95225.72;5086452;28;20161;-76
2023/10/31 05:03:53;;;;;;;;;;;;;;;8.39;100.00;95234.56;5086597;28;19969;-76
2023/10/31 05:06:20;;;;;;;;;;;;;;;8.37;100.00;95235.84;5086544;28;20234;-72
2023/10/31 05:08:46;;;;;;;;;;;;;;;8.37;100.00;95238.47;5086367;28;20033;-73
2023/10/31 05:11:12;;;;;;;;;;;;;;;8.34;100.00;95244.94;5086675;28;19945;-72
2023/10/31 05:13:41;;;;;;;;;;;;;;;8.32;100.00;95249.59;5085289;28;19960;-72
2023/10/31 05:16:07;;;;;;;;;;;;;;;8.30;100.00;95257.66;5084639;28;20157;-73
2023/10/31 05:18:32;;;;;;;;;;;;;;;8.29;100.00;95260.50;5084666;28;20163;-72
2023/10/31 05:20:58;;;;;;;;;;;;;;;8.30;100.00;95267.31;5085957;28;19956;-74
2023/10/31 05:23:24;;;;;;;;;;;;;;;8.32;100.00;95265.28;5086155;28;19961;-80
2023/10/31 05:25:50;;;;;;;;;;;;;;;8.32;100.00;95265.28;5086283;28;19954;-75
2023/10/31 05:28:16;;;;;;;;;;;;;;;8.32;100.00;95267.88;5085672;28;19968;-75
2023/10/31 05:30:42;;;;;;;;;;;;;;;8.31;100.00;95269.69;5084656;28;19954;-75
2023/10/31 05:33:08;;;;;;;;;;;;;;;8.33;100.00;95270.25;5085961;28;19964;-74
2023/10/31 05:35:34;;;;;;;;;;;;;;;8.36;100.00;95271.63;5085851;28;19963;-74
2023/10/31 05:38:00;;;;;;;;;;;;;;;8.38;100.00;95273.97;5085800;28;19969;-73
2023/10/31 05:40:27;;;;;;;;;;;;;;;8.40;100.00;95270.13;5085832;28;20023;-72
2023/10/31 05:42:53;;;;;;;;;;;;;;;8.41;100.00;95274.34;5085744;28;20254;-72
2023/10/31 05:45:19;;;;;;;;;;;;;;;8.42;100.00;95278.56;5085738;28;19958;-72
2023/10/31 05:47:44;;;;;;;;;;;;;;;8.41;100.00;95273.56;5084989;28;19964;-72
2023/10/31 05:50:10;;;;;;;;;;;;;;;8.39;100.00;95268.53;5085234;28;20196;-72
2023/10/31 05:52:36;;;;;;;;;;;;;;;8.38;100.00;95273.97;5085177;28;19957;-72
2023/10/31 05:55:02;;;;;;;;;;;;;;;8.37;100.00;95288.88;5085307;28;20022;-73
2023/10/31 05:57:29;;;;;;;;;;;;;;;8.34;100.00;95292.75;5085099;28;19976;-76
2023/10/31 05:59:54;;;;;;;;;;;;;;;8.32;100.00;95305.25;5085495;28;20230;-69
2023/10/31 06:02:20;;;;;;;;;;;;;;;8.31;100.00;95314.09;5085337;28;19953;-70
2023/10/31 06:04:46;;;;;;;;;;;;;;;8.30;100.00;95311.72;5085333;28;20012;-69
2023/10/31 06:07:12;;;;;;;;;;;;;;;8.27;100.00;95312.19;5085285;28;19970;-69
2023/10/31 06:09:38;;;;;;;;;;;;;;;8.22;100.00;95320.72;5085446;28;19941;-70
2023/10/31 06:12:05;;;;;;;;;;;;;;;8.23;100.00;95318.88;5084332;28;20051;-69
2023/10/31 06:14:30;;;;;;;;;;;;;;;8.23;100.00;95304.03;5085419;28;19960;-69
2023/10/31 06:16:59;;;;;;;;;;;;;;;8.22;100.00;95302.44;5085158;28;19971;-73
2023/10/31 06:19:24;;;;;;;;;;;;;;;8.23;100.00;95298.81;5083573;28;19961;-72
2023/10/31 06:21:50;;;;;;;;;;;;;;;8.26;100.00;95308.78;5085613;28;19964;-72
2023/10/31 06:24:16;;;;;;;;;;;;;;;8.26;100.00;95316.63;5084983;28;19958;-71
2023/10/31 06:26:42;;;;;;;;;;;;;;;8.27;100.00;95318.22;5084452;28;20020;-71
2023/10/31 06:29:08;;;;;;;;;;;;;;;8.27;100.00;95322.63;5083554;28;19976;-71
2023/10/31 06:31:33;;;;;;;;;;;;;;;8.27;100.00;95331.28;5084804;28;20241;-71
2023/10/31 06:33:59;;;;;;;;;;;;;;;8.28;100.00;95332.84;5084874;28;20047;-73
2023/10/31 06:36:25;;;;;;;;;;;;;;;8.29;100.00;95344.09;5084839;28;19963;-73
2023/10/31 06:38:51;;;;;;;;;;;;;;;8.26;100.00;95344.56;5084292;28;19948;-73
2023/10/31 06:41:17;;;;;;;;;;;;;;;8.26;100.00;95352.38;5084769;28;19954;-73
2023/10/31 06:43:43;;;;;;;;;;;;;;;8.24;100.00;95338.78;5084588;28;19957;-73
2023/10/31 06:46:09;;;;;;;;;;;;;;;8.24;100.00;95346.59;5084752;28;19960;-73
2023/10/31 06:48:35;;;;;;;;;;;;;;;8.22;100.00;95349.44;5084249;28;19960;-72
2023/10/31 06:51:00;;;;;;;;;;;;;;;8.22;100.00;95357.28;5084336;28;20011;-73
2023/10/31 06:53:26;;;;;;;;;;;;;;;8.20;100.00;95351.47;5084697;28;19950;-71
2023/10/31 06:55:52;;;;;;;;;;;;;;;8.21;100.00;95360.91;5084381;28;19956;-77
2023/10/31 06:58:18;;;;;;;;;;;;;;;8.22;100.00;95369.53;5084593;28;19953;-77
2023/10/31 07:00:44;;;;;;;;;;;;;;;8.21;100.00;95360.09;5084503;28;19970;-78
2023/10/31 07:03:14;;;;;;;;;;;;;;;8.21;100.00;95368.75;5084530;28;20022;-78
2023/10/31 07:05:40;;;;;;;;;;;;;;;8.22;100.00;95374.75;5084590;28;20139;-78
2023/10/31 07:08:06;;;;;;;;;;;;;;;8.22;100.00;95372.94;5082838;28;19982;-78
2023/10/31 07:10:33;;;;;;;;;;;;;;;8.27;100.00;95380.09;5084729;28;19968;-69
2023/10/31 07:12:59;;;;;;;;;;;;;;;8.32;100.00;95380.22;5084093;28;19957;-73
2023/10/31 07:15:28;;;;;;;;;;;;;;;8.36;100.00;95381.34;5084685;28;19961;-72
2023/10/31 07:17:53;;;;;;;;;;;;;;;8.41;100.00;95384.06;5084084;28;19951;-72
2023/10/31 07:20:20;;;;;;;;;;;;;;;8.47;100.00;95387.59;5084079;28;19979;-73
2023/10/31 07:22:45;;;;;;;;;;;;;;;8.50;100.00;95385.31;5084492;28;20188;-72
2023/10/31 07:25:11;;;;;;;;;;;;;;;8.54;100.00;95377.78;5087600;28;19963;-72
2023/10/31 07:27:37;;;;;;;;;;;;;;;8.65;100.00;95387.44;5088244;28;19963;-71
2023/10/31 07:30:05;;;;;;;;;;;;;;;9.14;100.00;95387.03;5088301;28;19963;-75
2023/10/31 07:32:31;;;;;;;;;;;;;;;9.52;100.00;95389.00;5088327;28;19954;-71
2023/10/31 07:34:57;;;;;;;;;;;;;;;9.55;100.00;95392.94;5087688;28;19966;-71
2023/10/31 07:37:23;;;;;;;;;;;;;;;9.51;100.00;95390.03;5087687;28;19943;-72
2023/10/31 07:39:50;;;;;;;;;;;;;;;9.42;100.00;95391.44;5087566;28;19957;-71
2023/10/31 07:42:16;;;;;;;;;;;;;;;9.38;100.00;95405.22;5087721;28;19961;-71
2023/10/31 07:44:42;;;;;;;;;;;;;;;9.27;100.00;95404.25;5088072;28;20024;-71
2023/10/31 07:47:08;;;;;;;;;;;;;;;9.18;100.00;95403.06;5087590;28;19954;-74
2023/10/31 07:49:34;;;;;;;;;;;;;;;9.13;100.00;95406.38;5087923;28;20146;-74
2023/10/31 07:52:00;;;;;;;;;;;;;;;9.11;100.00;95414.47;5087641;28;19958;-68
2023/10/31 07:54:25;;;;;;;;;;;;;;;9.07;100.00;95409.91;5087972;28;20043;-68
2023/10/31 07:56:52;;;;;;;;;;;;;;;9.03;100.00;95411.41;5087178;28;20020;-68
2023/10/31 07:59:18;;;;;;;;;;;;;;;9.01;100.00;95416.88;5087812;28;19961;-68
2023/10/31 08:01:44;;;;;;;;;;;;;;;9.02;100.00;95426.31;5087682;28;20021;-69
2023/10/31 08:04:09;;;;;;;;;;;;;;;9.03;100.00;95427.91;5087160;28;19958;-68
2023/10/31 08:06:35;;;;;;;;;;;;;;;9.03;100.00;95427.91;5087594;28;20002;-73
2023/10/31 08:09:01;;;;;;;;;;;;;;;9.01;100.00;95429.97;5087566;28;20180;-70
2023/10/31 08:11:27;;;;;;;;;;;;;;;9.03;100.00;95433.13;5087306;28;19961;-70
2023/10/31 08:13:53;;;;;;;;;;;;;;;9.02;100.00;95428.91;5087103;28;19965;-70
2023/10/31 08:16:19;;;;;;;;;;;;;;;9.04;100.00;95434.72;5087063;28;20007;-69
2023/10/31 08:18:45;;;;;;;;;;;;;;;9.07;100.00;95431.66;5087494;28;20036;-70
2023/10/31 08:21:11;;;;;;;;;;;;;;;9.12;100.00;95436.16;5087060;28;20224;-70
2023/10/31 08:23:37;;;;;;;;;;;;;;;9.16;100.00;95437.28;5085834;28;19963;-73
2023/10/31 08:26:03;;;;;;;;;;;;;;;9.20;100.00;95435.81;5087032;28;19960;-76
2023/10/31 08:28:30;;;;;;;;;;;;;;;9.24;100.00;95438.72;5087130;28;19971;-74
2023/10/31 08:30:56;;;;;;;;;;;;;;;9.26;100.00;95436.66;5087246;28;19957;-74
2023/10/31 08:33:22;;;;;;;;;;;;;;;9.31;100.00;95440.19;5086517;28;19964;-74
2023/10/31 08:35:48;;;;;;;;;;;;;;;9.33;100.00;95437.34;5086576;28;19999;-73
2023/10/31 08:38:14;;;;;;;;;;;;;;;9.35;100.00;95441.31;5086526;28;19995;-74
2023/10/31 08:40:41;;;;;;;;;;;;;;;9.36;100.00;95447.31;5086853;28;20018;-74
2023/10/31 08:43:06;;;;;;;;;;;;;;;9.35;100.00;95454.38;5086574;28;19963;-72
2023/10/31 08:45:33;;;;;;;;;;;;;;;9.38;100.00;95457.56;5086672;28;20009;-74
2023/10/31 08:47:59;;;;;;;;;;;;;;;9.38;100.00;95449.72;5086456;28;19969;-74
2023/10/31 08:50:25;;;;;;;;;;;;;;;9.41;100.00;95450.03;5086953;28;19953;-75
2023/10/31 08:52:51;;;;;;;;;;;;;;;9.46;100.00;95444.88;5086601;28;19968;-73
2023/10/31 08:55:17;;;;;;;;;;;;;;;9.52;100.00;95445.78;5086536;28;20142;-74
2023/10/31 08:57:43;;;;;;;;;;;;;;;9.59;100.00;95446.41;5086615;28;20223;-74
2023/10/31 09:00:09;;;;;;;;;;;;;;;9.67;100.00;95447.88;5086570;28;19950;-74
2023/10/31 09:02:35;;;;;;;;;;;;;;;9.75;100.00;95450.09;5086367;28;20235;-69
2023/10/31 09:05:01;;;;;;;;;;;;;;;9.80;100.00;95452.78;5086575;28;20024;-69
2023/10/31 09:07:27;;;;;;;;;;;;;;;9.80;100.00;95452.78;5085973;28;19948;-69
2023/10/31 09:09:53;;;;;;;;;;;;;;;9.84;100.00;95453.91;5086648;28;19960;-68
2023/10/31 09:12:19;;;;;;;;;;;;;;;9.88;100.00;95449.78;5086023;28;19961;-68
2023/10/31 09:14:45;;;;;;;;;;;;;;;9.98;100.00;95451.78;5086021;28;19964;-69
2023/10/31 09:17:11;;;;;;;;;;;;;;;10.06;100.00;95450.59;5085986;28;19947;-69
2023/10/31 09:19:36;;;;;;;;;;;;;;;10.13;100.00;95454.63;5086277;28;19954;-69
2023/10/31 09:22:02;;;;;;;;;;;;;;;10.21;100.00;95453.44;5085997;28;19958;-73
2023/10/31 09:24:28;;;;;;;;;;;;;;;10.31;100.00;95458.03;5086031;28;19990;-73
2023/10/31 09:26:55;;;;;;;;;;;;;;;10.38;100.00;95453.44;5086017;28;19957;-73
2023/10/31 09:29:20;;;;;;;;;;;;;;;10.43;100.00;95455.34;5085881;28;20274;-73
2023/10/31 09:31:47;;;;;;;;;;;;;;;10.42;100.00;95459.00;5086014;28;19958;-73
2023/10/31 09:34:13;;;;;;;;;;;;;;;10.41;100.00;95454.78;5086006;28;20139;-73
2023/10/31 09:36:39;;;;;;;;;;;;;;;10.43;100.00;95457.97;5084914;28;19963;-73
2023/10/31 09:39:05;;;;;;;;;;;;;;;10.45;100.00;95461.91;5085959;28;19958;-77
2023/10/31 09:41:34;;;;;;;;;;;;;;;10.45;100.00;95446.19;5086043;28;19950;-73
2023/10/31 09:44:00;;;;;;;;;;;;;;;10.45;100.00;95456.69;5086013;28;19951;-73
2023/10/31 09:46:28;;;;;;;;;;;;;;;10.49;100.00;95457.00;5084632;28;20006;-73
2023/10/31 09:48:54;;;;;;;;;;;;;;;10.49;100.00;95455.16;5085363;28;19976;-73
2023/10/31 09:51:21;;;;;;;;;;;;;;;10.50;100.00;95455.97;5085280;28;20266;-73
2023/10/31 09:53:47;;;;;;;;;;;;;;;10.51;100.00;95458.34;5085386;28;19953;-74
2023/10/31 09:56:13;;;;;;;;;;;;;;;10.49;100.00;95447.31;5085369;28;19949;-77
2023/10/31 09:58:41;;;;;;;;;;;;;;;10.48;100.00;95450.97;5085462;28;19956;-72
2023/10/31 10:01:07;;;;;;;;;;;;;;;10.48;100.00;95444.94;5085408;28;19957;-73
2023/10/31 10:03:33;;;;;;;;;;;;;;;10.46;100.00;95449.63;5085410;28;20122;-73
2023/10/31 10:05:59;;;;;;;;;;;;;;;10.47;100.00;95454.59;5085590;28;19945;-73
2023/10/31 10:08:24;;;;;;;;;;;;;;;10.49;100.00;95446.50;5085498;28;19966;-73
2023/10/31 10:10:51;;;;;;;;;;;;;;;10.50;100.00;95448.13;5085303;28;20233;-73
2023/10/31 10:13:17;;;;;;;;;;;;;;;10.53;100.00;95450.25;5084852;28;19965;-72
2023/10/31 10:15:53;;;;;;;;;;;;;;;10.57;100.00;95452.13;5084778;28;19953;-70
2023/10/31 10:18:29;;;;;;;;;;;;;;;10.63;100.00;95455.63;5084998;28;19966;-72
2023/10/31 10:20:56;;;;;;;;;;;;;;;10.87;100.00;95452.75;5084534;28;19953;-77
2023/10/31 10:23:22;;;;;;;;;;;;;;;10.91;100.00;95456.50;5083787;28;19960;-78
2023/10/31 10:25:49;;;;;;;;;;;;;;;10.86;100.00;95454.59;5085073;28;20000;-78
2023/10/31 10:28:15;;;;;;;;;;;;;;;10.81;100.00;95449.28;5083587;28;19970;-79
2023/10/31 10:30:41;;;;;;;;;;;;;;;10.80;100.00;95460.81;5084502;28;19942;-79
2023/10/31 10:33:07;;;;;;;;;;;;;;;10.80;100.00;95450.34;5083641;28;20111;-79
2023/10/31 10:35:34;;;;;;;;;;;;;;;10.79;100.00;95456.59;5084032;28;19968;-73
2023/10/31 10:38:01;;;;;;;;;;;;;;;10.75;100.00;95451.06;5084511;28;19955;-70
2023/10/31 10:40:27;;;;;;;;;;;;;;;10.75;100.00;95460.75;5084448;28;20130;-70
2023/10/31 10:42:57;;;;;;;;;;;;;;;10.76;100.00;95470.22;5084966;28;19963;-70
2023/10/31 10:45:24;;;;;;;;;;;;;;;10.79;100.00;95461.84;5084518;28;19956;-70
2023/10/31 10:47:50;;;;;;;;;;;;;;;10.88;100.00;95472.72;5084533;28;19974;-70
2023/10/31 10:50:29;;;;;;;;;;;;;;;10.96;100.00;95472.28;5084338;28;19976;-70
2023/10/31 10:53:08;;;;;;;;;;;;;;;11.02;100.00;95462.66;5084823;28;20317;-73
2023/10/31 10:55:38;;;;;;;;;;;;;;;11.04;100.00;95471.06;5084169;28;19944;-73
2023/10/31 10:58:19;;;;;;;;;;;;;;;11.07;100.00;95475.84;5084710;28;19959;-73
2023/10/31 11:00:45;;;;;;;;;;;;;;;11.06;100.00;95471.63;5084271;28;19958;-73
2023/10/31 11:03:11;;;;;;;;;;;;;;;11.07;100.00;95465.34;5084320;28;19981;-73
2023/10/31 11:05:38;;;;;;;;;;;;;;;11.07;100.00;95462.72;5084278;28;19950;-73
2023/10/31 11:08:05;;;;;;;;;;;;;;;11.06;100.00;95466.38;5084272;28;19968;-74
2023/10/31 11:10:31;;;;;;;;;;;;;;;11.00;100.00;95469.97;5084411;28;19958;-70
2023/10/31 11:12:57;;;;;;;;;;;;;;;11.03;100.00;95470.28;5084428;28;19954;-73
2023/10/31 11:15:23;;;;;;;;;;;;;;;11.23;100.00;95463.66;5084667;28;19964;-73
2023/10/31 11:17:50;;;;;;;;;;;;;;;11.33;100.00;95458.53;5084316;28;19961;-73
2023/10/31 11:20:16;;;;;;;;;;;;;;;11.43;100.00;95474.41;5084342;28;19940;-73
2023/10/31 11:22:48;;;;;;;;;;;;;;;11.47;100.00;95466.84;5083390;28;20145;-73
2023/10/31 11:25:15;;;;;;;;;;;;;;;11.49;100.00;95477.88;5083999;28;20252;-73
2023/10/31 11:27:41;;;;;;;;;;;;;;;11.46;100.00;95473.88;5084175;28;19969;-74
2023/10/31 11:30:27;;;;;;;;;;;;;;;11.46;100.00;95467.84;5083976;28;20148;-73
2023/10/31 11:32:54;;;;;;;;;;;;;;;11.51;100.00;95481.84;5084138;28;19958;-69
2023/10/31 11:35:21;;;;;;;;;;;;;;;11.50;100.00;95476.81;5084058;28;20172;-70
2023/10/31 11:38:00;;;;;;;;;;;;;;;11.48;100.00;95478.91;5084213;28;19972;-69
2023/10/31 11:40:26;;;;;;;;;;;;;;;11.47;100.00;95485.22;5084179;28;19955;-70
2023/10/31 11:42:54;;;;;;;;;;;;;;;11.45;100.00;95495.94;5083928;28;20035;-69
2023/10/31 11:45:28;;;;;;;;;;;;;;;11.42;100.00;95480.66;5083741;28;20102;-70
2023/10/31 11:47:55;;;;;;;;;;;;;;;11.44;100.00;95510.09;5083881;28;19955;-71
2023/10/31 11:50:21;;;;;;;;;;;;;;;11.49;100.00;95494.41;5083840;28;19962;-74
2023/10/31 11:53:05;;;;;;;;;;;;;;;11.60;100.00;95497.16;5084075;28;19949;-73
2023/10/31 11:55:33;;;;;;;;;;;;;;;11.69;100.00;95501.69;5083938;28;19955;-73
2023/10/31 11:58:11;;;;;;;;;;;;;;;11.72;100.00;95495.97;5082626;28;20140;-73
2023/10/31 12:00:37;;;;;;;;;;;;;;;11.75;100.00;95507.78;5083937;28;19961;-73
2023/10/31 12:03:03;;;;;;;;;;;;;;;11.73;100.00;95500.16;5084220;28;19938;-74
2023/10/31 12:05:29;;;;;;;;;;;;;;;11.73;100.00;95499.38;5084009;28;19977;-73
2023/10/31 12:07:55;;;;;;;;;;;;;;;11.74;100.00;95512.25;5083146;28;19954;-77
2023/10/31 12:10:23;;;;;;;;;;;;;;;11.72;100.00;95501.22;5085850;28;19999;-78
2023/10/31 12:12:49;;;;;;;;;;;;;;;11.73;100.00;95505.41;5087214;28;19950;-78
2023/10/31 12:15:15;;;;;;;;;;;;;;;11.73;100.00;95507.25;5087194;28;19955;-78
2023/10/31 12:17:41;;;;;;;;;;;;;;;11.70;100.00;95508.53;5086905;28;19956;-78
2023/10/31 12:20:08;;;;;;;;;;;;;;;11.70;100.00;95495.41;5086108;28;20247;-79
2023/10/31 12:22:34;;;;;;;;;;;;;;;11.70;100.00;95510.38;5087347;28;20261;-78
2023/10/31 12:25:03;;;;;;;;;;;;;;;11.68;100.00;95515.09;5087354;28;19958;-82
2023/10/31 12:27:44;;;;;;;;;;;;;;;11.66;100.00;95501.41;5085976;28;19949;-70
2023/10/31 12:30:10;;;;;;;;;;;;;;;11.68;100.00;95505.38;5086550;28;19982;-70
2023/10/31 12:32:36;;;;;;;;;;;;;;;11.71;100.00;95504.09;5086854;28;19965;-70
2023/10/31 12:35:02;;;;;;;;;;;;;;;11.74;100.00;95501.75;5086758;28;19971;-69
2023/10/31 12:37:28;;;;;;;;;;;;;;;11.77;100.00;95509.13;5086812;28;19951;-70
2023/10/31 12:39:55;;;;;;;;;;;;;;;11.84;100.00;95505.50;5087234;28;19967;-70